createdAt,value
2023-04-21T00:02:12.635Z,20.8
2023-04-21T00:07:23.185Z,19.8
2023-04-21T00:09:26.780Z,16.9
2023-04-21T00:11:30.469Z,20.4
2023-04-21T00:13:34.056Z,18.8
2023-04-21T00:17:44.487Z,21
2023-04-21T00:30:09.242Z,20.2
2023-04-21T00:32:12.869Z,21.5
2023-04-21T00:34:16.479Z,21.6
2023-04-21T00:36:20.125Z,23.6
2023-04-21T00:38:23.712Z,22.3
2023-04-21T00:40:27.328Z,21.6
2023-04-21T00:44:37.659Z,23.9
2023-04-21T00:52:52.170Z,22
2023-04-21T00:54:55.803Z,23.2
2023-04-21T00:57:00.543Z,22.9
2023-04-21T00:59:06.128Z,21.9
2023-04-21T01:01:09.822Z,23.1
2023-04-21T01:03:13.541Z,22.3
2023-04-21T01:05:31.562Z,25.5
2023-04-21T01:07:35.194Z,23.2
2023-04-21T01:15:52.756Z,23
2023-04-21T01:17:56.397Z,23.8
2023-04-21T01:20:00.023Z,24.4
2023-04-21T01:22:03.687Z,21.7
2023-04-21T01:24:07.279Z,23.2
2023-04-21T01:26:13.892Z,23.3
2023-04-21T01:30:21.144Z,24.8
2023-04-21T01:32:24.912Z,24.2
2023-04-21T01:34:28.426Z,24.8
2023-04-21T01:36:32.036Z,24.5
2023-04-21T01:38:35.637Z,24.2
2023-04-21T01:40:42.361Z,25.9
2023-04-21T01:42:45.952Z,23.1
2023-04-21T01:44:49.553Z,25.3
2023-04-21T01:46:53.229Z,22.9
2023-04-21T01:57:14.415Z,23.4
2023-04-21T01:59:18.313Z,24.1
2023-04-21T02:00:21.319Z,23.2
2023-04-21T02:02:25.166Z,23.8
2023-04-21T02:06:32.172Z,25.5
2023-04-21T02:12:46.091Z,23.2
2023-04-21T02:14:49.690Z,24.7
2023-04-21T02:16:53.367Z,23.5
2023-04-21T02:21:00.552Z,23.4
2023-04-21T02:23:07.241Z,24.4
2023-04-21T02:25:10.849Z,22.4
2023-04-21T02:27:14.452Z,23.6
2023-04-21T02:29:18.379Z,25
2023-04-21T02:31:21.733Z,24
2023-04-21T02:33:25.430Z,24.7
2023-04-21T02:35:28.982Z,26.7
2023-04-21T02:37:35.633Z,25.3
2023-04-21T02:39:39.256Z,24.5
2023-04-21T02:41:42.882Z,23.1
2023-04-21T02:43:46.471Z,24.8
2023-04-21T02:47:53.741Z,23.3
2023-04-21T02:49:57.286Z,25.5
2023-04-21T02:52:04.010Z,25.8
2023-04-21T02:57:14.579Z,27.5
2023-04-21T03:05:32.083Z,28.7
2023-04-21T03:11:42.955Z,27.3
2023-04-21T03:20:00.560Z,29.3
2023-04-21T03:22:04.128Z,28.1
2023-04-21T03:26:11.378Z,26.9
2023-04-21T03:28:14.997Z,29.9
2023-04-21T03:34:28.953Z,27.9
2023-04-21T03:36:32.567Z,29.5
2023-04-21T03:38:36.160Z,29.7
2023-04-21T03:40:39.834Z,28.2
2023-04-21T03:42:43.418Z,29.9
2023-04-21T03:44:47.054Z,30
2023-04-21T03:46:50.682Z,29
2023-04-21T03:48:57.338Z,31.8
2023-04-21T03:51:00.997Z,30.4
2023-04-21T03:54:07.943Z,32.1
2023-04-21T03:58:15.207Z,30
2023-04-21T04:00:18.814Z,30
2023-04-21T04:02:25.647Z,31.5
2023-04-21T04:04:29.314Z,30.2
2023-04-21T04:06:32.736Z,30.2
2023-04-21T04:08:36.394Z,30.9
2023-04-21T04:12:43.643Z,32.1
2023-04-21T04:14:47.244Z,30.5
2023-04-21T04:16:53.915Z,32.5
2023-04-21T04:18:57.654Z,31.9
2023-04-21T04:21:01.143Z,32.4
2023-04-21T04:23:04.789Z,33.4
2023-04-21T04:25:08.386Z,32.5
2023-04-21T04:27:12.007Z,30.4
2023-04-21T04:29:15.621Z,32.3
2023-04-21T04:33:25.867Z,31.3
2023-04-21T04:35:29.514Z,29.3
2023-04-21T04:37:33.131Z,29
2023-04-21T04:43:43.982Z,30
2023-04-21T04:45:50.680Z,33.6
2023-04-21T04:49:57.940Z,30.2
2023-04-21T04:52:22.341Z,35
2023-04-21T04:58:36.278Z,32.8
2023-04-21T05:04:47.247Z,32.1
2023-04-21T05:06:50.749Z,31.2
2023-04-21T05:08:54.358Z,33.3
2023-04-21T05:10:57.953Z,33.7
2023-04-21T05:13:04.653Z,35.3
2023-04-21T05:15:08.253Z,34
2023-04-21T05:17:11.885Z,32.6
2023-04-21T05:19:18.589Z,34.3
2023-04-21T05:21:19.109Z,34.2
2023-04-21T05:23:22.765Z,33.3
2023-04-21T05:29:36.627Z,34.2
2023-04-21T05:31:40.340Z,34
2023-04-21T05:33:43.916Z,34.7
2023-04-21T05:35:47.540Z,33.5
2023-04-21T05:37:51.157Z,34.5
2023-04-21T05:39:54.763Z,35.8
2023-04-21T05:44:06.531Z,35.4
2023-04-21T05:46:10.258Z,35.7
2023-04-21T05:47:13.694Z,37.2
2023-04-21T05:49:17.139Z,38.7
2023-04-21T05:53:24.430Z,37.1
2023-04-21T06:01:41.958Z,39.1
2023-04-21T06:05:49.198Z,38.6
2023-04-21T06:07:52.807Z,39.6
2023-04-21T06:09:59.500Z,42.8
2023-04-21T06:12:03.076Z,42.3
2023-04-21T06:14:06.719Z,40.6
2023-04-21T06:16:10.328Z,41
2023-04-21T06:18:14.027Z,44
2023-04-21T06:20:17.562Z,41.8
2023-04-21T06:22:21.186Z,41.9
2023-04-21T06:24:27.862Z,43.4
2023-04-21T06:32:42.359Z,43.7
2023-04-21T06:38:56.243Z,44.7
2023-04-21T06:40:59.839Z,43
2023-04-21T06:43:03.437Z,41.2
2023-04-21T06:44:06.818Z,45
2023-04-21T06:46:10.427Z,42.6
2023-04-21T06:50:17.641Z,42.2
2023-04-21T06:52:24.295Z,43.1
2023-04-21T06:54:27.930Z,41.2
2023-04-21T06:56:31.529Z,40.1
2023-04-21T06:58:35.261Z,41.5
2023-04-21T07:00:38.874Z,42.2
2023-04-21T07:02:42.450Z,41.8
2023-04-21T07:04:46.079Z,39.8
2023-04-21T07:06:52.685Z,45.5
2023-04-21T07:08:56.300Z,43.5
2023-04-21T07:10:59.925Z,41
2023-04-21T07:13:03.528Z,42.2
2023-04-21T07:15:07.133Z,44.5
2023-04-21T07:17:10.853Z,42.6
2023-04-21T07:19:14.331Z,43.4
2023-04-21T07:21:21.016Z,43.7
2023-04-21T07:23:24.616Z,41.7
2023-04-21T07:25:28.228Z,39.8
2023-04-21T07:27:31.840Z,42.2
2023-04-21T07:31:39.121Z,38.4
2023-04-21T07:33:42.624Z,39.8
2023-04-21T07:35:49.289Z,36.8
2023-04-21T07:37:52.851Z,35.9
2023-04-21T07:39:56.447Z,37.5
2023-04-21T07:40:59.802Z,39.2
2023-04-21T07:45:06.965Z,35
2023-04-21T07:47:10.553Z,36.4
2023-04-21T07:49:17.765Z,37.1
2023-04-21T07:53:24.434Z,34.3
2023-04-21T07:57:31.630Z,35.2
2023-04-21T07:59:35.217Z,32.5
2023-04-21T08:01:38.795Z,33.2
2023-04-21T08:03:45.701Z,31.8
2023-04-21T08:05:49.446Z,35.2
2023-04-21T08:07:52.695Z,31.5
2023-04-21T08:09:56.289Z,29.9
2023-04-21T08:20:17.317Z,30.7
2023-04-21T08:22:21.064Z,29.9
2023-04-21T08:24:24.512Z,28.3
2023-04-21T08:28:31.639Z,28.1
2023-04-21T08:30:35.259Z,27.5
2023-04-21T08:32:41.976Z,27.7
2023-04-21T08:41:11.170Z,25.3
2023-04-21T08:43:14.722Z,24.4
2023-04-21T08:45:21.376Z,29.3
2023-04-21T08:47:24.966Z,24.7
2023-04-21T08:49:28.499Z,25.3
2023-04-21T08:51:32.111Z,26.3
2023-04-21T09:20:28.270Z,20.7
2023-04-21T09:22:31.889Z,22.7
2023-04-21T09:24:35.432Z,21.1
2023-04-21T09:26:39.012Z,21.3
2023-04-21T09:28:45.650Z,22.8
2023-04-21T09:30:49.281Z,23.5
2023-04-21T09:32:52.840Z,21.7
2023-04-21T09:33:59.349Z,24.1
2023-04-21T09:35:59.655Z,22.2
2023-04-21T10:02:52.002Z,18.9
2023-04-21T10:04:55.640Z,20.1
2023-04-21T10:17:19.876Z,18.6
2023-04-21T10:25:37.039Z,20.8
2023-04-21T10:27:40.539Z,20
2023-04-21T10:29:56.036Z,18.7
2023-04-21T10:30:47.332Z,18.5
2023-04-21T10:32:50.899Z,19.7
2023-04-21T10:43:11.572Z,19.2
2023-04-21T10:47:18.662Z,19.2
2023-04-21T11:10:03.358Z,18.8
2023-04-21T11:12:06.886Z,19.3
2023-04-21T11:14:10.506Z,18.6
2023-04-21T11:16:13.930Z,17.9
2023-04-21T11:18:17.406Z,17
2023-04-21T11:20:20.924Z,18.5
2023-04-21T11:22:27.493Z,18.8
2023-04-21T11:24:31.009Z,17.6
2023-04-21T11:26:34.515Z,19.5
2023-04-21T11:27:37.736Z,20.4
2023-04-21T11:29:41.286Z,19.1
2023-04-21T11:31:44.746Z,19.5
2023-04-21T11:33:48.260Z,19.4
2023-04-21T11:35:54.858Z,19.8
2023-04-21T11:37:59.895Z,18.5
2023-04-21T11:40:03.374Z,18.9
2023-04-21T11:42:06.819Z,20.3
2023-04-21T11:44:10.351Z,19.5
2023-04-21T11:46:13.937Z,19.3
2023-04-21T11:48:17.372Z,18.7
2023-04-21T11:50:23.953Z,20.8
2023-04-21T11:52:27.420Z,19.5
2023-04-21T11:54:30.934Z,19.4
2023-04-21T11:58:37.956Z,18
2023-04-21T12:00:41.454Z,20.1
2023-04-21T12:02:45.002Z,19
2023-04-21T12:04:51.722Z,20.2
2023-04-21T12:06:55.009Z,18.9
2023-04-21T12:11:01.993Z,18.2
2023-04-21T12:13:05.491Z,18.6
2023-04-21T12:15:08.996Z,18.7
2023-04-21T12:17:12.445Z,17.2
2023-04-21T12:19:19.000Z,18.4
2023-04-21T12:21:22.489Z,18.6
2023-04-21T12:25:53.980Z,19.1
2023-04-21T12:27:57.337Z,18.3
2023-04-21T12:30:00.827Z,19.1
2023-04-21T12:32:07.476Z,19.4
2023-04-21T12:36:14.342Z,17.3
2023-04-21T12:38:17.791Z,17.4
2023-04-21T12:40:21.257Z,20.4
2023-04-21T12:42:24.708Z,17.7
2023-04-21T12:44:28.226Z,16.7
2023-04-21T12:46:34.764Z,17
2023-04-21T12:52:45.073Z,17.8
2023-04-21T12:54:48.522Z,17.7
2023-04-21T13:01:01.944Z,16.1
2023-04-21T13:03:05.345Z,17.4
2023-04-21T13:05:08.593Z,15.3
2023-04-21T13:07:12.004Z,17
2023-04-21T13:11:18.753Z,17.5
2023-04-21T13:15:28.554Z,16.3
2023-04-21T13:17:31.970Z,16.4
2023-04-21T13:30:58.517Z,15.8
2023-04-21T13:33:01.820Z,16.6
2023-04-21T13:35:04.965Z,14.8
2023-04-21T13:39:11.448Z,14.6
2023-04-21T13:43:20.896Z,14.5
2023-04-21T13:45:24.089Z,14.6
2023-04-21T13:47:27.319Z,15
2023-04-21T13:51:33.602Z,15.1
2023-04-21T13:53:36.824Z,13.2
2023-04-21T13:55:39.977Z,14.9
2023-04-21T13:57:46.162Z,14.3
2023-04-21T13:59:49.303Z,14.8
2023-04-21T14:08:02.000Z,14.3
2023-04-21T14:10:05.220Z,13.7
2023-04-21T14:17:20.880Z,13.7
2023-04-21T14:29:43.222Z,15.7
2023-04-21T14:31:46.485Z,14.1
2023-04-21T14:37:56.152Z,15.9
2023-04-21T14:40:02.578Z,16.3
2023-04-21T14:42:05.752Z,15.5
2023-04-21T14:44:08.954Z,16.3
2023-04-21T14:46:12.232Z,14.8
2023-04-21T14:48:15.616Z,14.9
2023-04-21T14:50:18.929Z,15.6
2023-04-21T14:52:22.210Z,15.1
2023-04-21T14:54:28.657Z,14.3
2023-04-21T14:56:31.910Z,14.2
2023-04-21T14:58:35.349Z,15.9
2023-04-21T15:00:38.662Z,15.1
2023-04-21T15:10:58.661Z,14.9
2023-04-21T15:13:01.967Z,13.9
2023-04-21T15:14:05.194Z,15
2023-04-21T15:20:15.174Z,14.3
2023-04-21T15:22:21.546Z,13.6
2023-04-21T15:24:24.854Z,13.7
2023-04-21T15:28:31.643Z,13.2
2023-04-21T15:30:35.063Z,13.6
2023-04-21T15:32:38.451Z,16.2
2023-04-21T15:34:41.832Z,13.6
2023-04-21T15:38:51.726Z,14
2023-04-21T15:41:01.071Z,13.6
2023-04-21T15:42:58.536Z,13.5
2023-04-21T15:45:01.971Z,14.4
2023-04-21T15:49:08.597Z,15
2023-04-21T15:51:15.105Z,14.6
2023-04-21T15:57:25.176Z,14.5
2023-04-21T16:01:32.016Z,13.8
2023-04-21T16:03:35.452Z,13.5
2023-04-21T16:05:41.958Z,14.1
2023-04-21T16:07:45.250Z,13.9
2023-04-21T16:09:48.561Z,13.9
2023-04-21T16:12:11.851Z,16.7
2023-04-21T16:14:15.262Z,14.2
2023-04-21T16:16:18.626Z,13.8
2023-04-21T16:18:25.078Z,15.6
2023-04-21T16:20:28.416Z,15.2
2023-04-21T16:24:35.308Z,13.9
2023-04-21T16:26:38.585Z,14.4
2023-04-21T16:28:41.858Z,15.5
2023-04-21T16:32:51.581Z,15
2023-04-21T16:34:54.991Z,14.4
2023-04-21T16:36:58.325Z,14.7
2023-04-21T16:39:01.734Z,13.9
2023-04-21T16:41:05.116Z,13.2
2023-04-21T16:43:08.441Z,14.2
2023-04-21T16:47:18.054Z,15.4
2023-04-21T16:49:21.391Z,15.5
2023-04-21T16:51:24.605Z,15.2
2023-04-21T16:53:27.867Z,13.6
2023-04-21T16:55:31.143Z,14.1
2023-04-21T17:03:47.666Z,14.6
2023-04-21T17:05:50.943Z,14.4
2023-04-21T17:23:24.127Z,15.6
2023-04-21T17:25:27.547Z,14.9
2023-04-21T17:27:30.902Z,15.7
2023-04-21T17:29:37.463Z,16.3
2023-04-21T17:36:02.381Z,15.7
2023-04-21T17:39:55.981Z,15.8
2023-04-21T17:44:05.925Z,17.5
2023-04-21T17:46:09.361Z,17.6
2023-04-21T17:48:12.808Z,15.9
2023-04-21T17:50:16.161Z,17
2023-04-21T17:54:22.918Z,17.5
2023-04-21T17:58:32.869Z,17.9
2023-04-21T18:03:43.268Z,17.2
2023-04-21T18:05:46.502Z,17.3
2023-04-21T18:07:49.946Z,16.1
2023-04-21T18:09:53.402Z,18
2023-04-21T18:12:00.067Z,19.4
2023-04-21T18:14:03.681Z,17.9
2023-04-21T18:16:07.097Z,17.8
2023-04-21T18:18:10.536Z,17.4
2023-04-21T18:20:14.016Z,17.3
2023-04-21T18:22:17.501Z,10.2
2023-04-21T18:24:20.938Z,4.4
2023-04-21T18:26:27.542Z,2.6
2023-04-21T18:28:31.008Z,1.5
2023-04-21T18:30:34.456Z,1.1
2023-04-21T18:32:38.002Z,1.4
2023-04-21T18:34:41.543Z,1
2023-04-21T18:36:44.914Z,1.1
2023-04-21T18:42:58.432Z,1.8
2023-04-21T18:51:12.353Z,2
2023-04-21T18:53:15.875Z,1.5
2023-04-21T18:55:22.485Z,1.6
2023-04-21T18:57:25.959Z,1.7
2023-04-21T18:59:29.489Z,1.2
2023-04-21T19:00:32.866Z,1.9
2023-04-21T19:12:56.884Z,1.9
2023-04-21T19:27:24.503Z,2.5
2023-04-21T19:33:35.064Z,2.3
2023-04-21T19:37:45.573Z,2.6
2023-04-21T19:39:49.106Z,2.2
2023-04-21T19:43:56.122Z,2.8
2023-04-21T19:45:59.684Z,2.5
2023-04-21T19:48:03.265Z,2.4
2023-04-21T19:50:06.740Z,3.1
2023-04-21T19:52:13.382Z,4
2023-04-21T19:54:16.913Z,2.9
2023-04-21T19:56:20.428Z,3.4
2023-04-21T19:58:40.798Z,3.5
2023-04-21T20:00:42.483Z,2.8
2023-04-21T20:04:52.785Z,3.1
2023-04-21T20:11:03.231Z,3.5
2023-04-21T20:15:10.321Z,3.9
2023-04-21T20:27:34.741Z,3.6
2023-04-21T20:33:48.492Z,4.3
2023-04-21T20:35:52.092Z,4
2023-04-21T20:44:06.370Z,3.8
2023-04-21T20:50:20.149Z,4.8
2023-04-21T20:52:23.709Z,5.3
2023-04-21T20:53:27.023Z,4.9
2023-04-21T20:55:30.594Z,4.5
2023-04-21T21:03:48.112Z,5.7
2023-04-21T21:07:55.061Z,6
2023-04-21T21:09:58.647Z,5.5
2023-04-21T21:12:02.209Z,3.9
2023-04-21T21:14:05.791Z,4
2023-04-21T21:16:12.471Z,3.8
2023-04-21T21:18:16.169Z,4
2023-04-21T21:20:19.536Z,3.1
2023-04-21T21:22:23.088Z,2.4
2023-04-21T21:24:26.672Z,2.7
2023-04-21T21:26:30.244Z,3.2
2023-04-21T21:28:33.812Z,3.7
2023-04-21T21:30:40.412Z,3.3
2023-04-21T21:32:44.074Z,3.2
2023-04-21T21:34:47.577Z,3
2023-04-21T21:40:58.283Z,3.5
2023-04-21T21:45:08.469Z,3.3
2023-04-21T21:47:12.032Z,2.3
2023-04-21T21:49:15.595Z,2.4
2023-04-21T21:50:18.939Z,1.8
2023-04-21T22:17:11.455Z,3.2
2023-04-21T22:19:15.026Z,2.4
2023-04-21T22:33:43.110Z,3.8
2023-04-21T22:37:50.256Z,2.9
2023-04-21T22:39:53.831Z,4
2023-04-21T22:42:00.488Z,3.6
2023-04-21T22:44:04.077Z,3.4
2023-04-21T22:46:07.618Z,4.3
2023-04-21T22:47:11.088Z,3.9
2023-04-21T22:49:14.569Z,4
2023-04-21T22:51:18.120Z,4.1
2023-04-21T22:55:28.339Z,3.7
2023-04-21T22:57:31.914Z,3.5
2023-04-21T22:59:35.524Z,4.7
2023-04-21T23:01:39.159Z,4.5
2023-04-21T23:03:42.806Z,6.2
2023-04-21T23:05:46.278Z,6
2023-04-21T23:09:56.498Z,7
2023-04-21T23:12:00.103Z,7
2023-04-21T23:14:03.696Z,5.8
2023-04-21T23:16:07.269Z,6.7
2023-04-21T23:18:10.966Z,6.1
2023-04-21T23:20:14.454Z,7
2023-04-21T23:22:18.012Z,6.7
2023-04-21T23:24:24.728Z,8.2
2023-04-21T23:26:28.316Z,6.9
2023-04-21T23:28:31.897Z,7
2023-04-21T23:30:35.512Z,7
2023-04-21T23:32:40.671Z,7.1
2023-04-21T23:36:47.777Z,7.6
2023-04-21T23:38:54.457Z,9.5
2023-04-21T23:40:58.299Z,8.9
2023-04-21T23:43:01.659Z,8.1
2023-04-21T23:47:29.530Z,8.6
2023-04-21T23:49:33.139Z,9.7
